createdAt,value
2022-10-10T00:01:13.616Z,6.21
2022-10-10T00:03:40.215Z,5.75
2022-10-10T00:06:07.630Z,5.36
2022-10-10T00:08:33.854Z,4.98
2022-10-10T00:11:00.137Z,4.65
2022-10-10T00:13:26.402Z,4.36
2022-10-10T00:15:52.707Z,4.08
2022-10-10T00:18:18.877Z,5.10
2022-10-10T00:20:45.034Z,8.55
2022-10-10T00:23:11.177Z,10.45
2022-10-10T00:25:37.333Z,11.56
2022-10-10T00:28:05.032Z,12.31
2022-10-10T00:30:31.444Z,12.42
2022-10-10T00:32:58.938Z,10.85
2022-10-10T00:35:26.396Z,9.21
2022-10-10T00:37:52.759Z,7.99
2022-10-10T00:40:19.101Z,7.12
2022-10-10T00:42:45.227Z,6.40
2022-10-10T00:45:19.655Z,5.78
2022-10-10T00:47:46.975Z,5.23
2022-10-10T00:50:13.262Z,4.79
2022-10-10T00:52:39.769Z,4.42
2022-10-10T00:55:06.775Z,4.10
2022-10-10T00:57:32.933Z,5.10
2022-10-10T01:00:00.184Z,8.54
2022-10-10T01:02:26.420Z,10.55
2022-10-10T01:04:52.539Z,11.60
2022-10-10T01:07:23.592Z,12.33
2022-10-10T01:09:52.432Z,12.16
2022-10-10T01:12:30.557Z,10.43
2022-10-10T01:15:20.778Z,8.86
2022-10-10T01:17:58.320Z,7.65
2022-10-10T01:20:40.468Z,6.84
2022-10-10T01:24:04.768Z,6.17
2022-10-10T01:27:38.680Z,5.48
2022-10-10T01:30:13.253Z,4.84
2022-10-10T01:33:01.158Z,4.41
2022-10-10T01:35:36.364Z,3.98
2022-10-10T01:38:13.392Z,3.65
2022-10-10T01:40:58.035Z,3.33
2022-10-10T01:43:25.867Z,4.74
2022-10-10T01:45:53.365Z,8.25
2022-10-10T01:48:38.120Z,10.10
2022-10-10T01:51:13.360Z,11.21
2022-10-10T01:53:47.171Z,11.96
2022-10-10T01:56:26.173Z,11.75
2022-10-10T01:59:12.247Z,9.88
2022-10-10T02:01:54.089Z,8.26
2022-10-10T02:04:39.700Z,7.15
2022-10-10T02:07:22.526Z,6.30
2022-10-10T02:09:50.656Z,5.60
2022-10-10T02:12:19.517Z,5.06
2022-10-10T02:14:49.746Z,4.59
2022-10-10T02:17:17.085Z,4.16
2022-10-10T02:19:52.861Z,3.78
2022-10-10T02:22:22.177Z,3.45
2022-10-10T02:24:50.662Z,3.18
2022-10-10T02:27:25.924Z,3.73
2022-10-10T02:29:53.357Z,7.36
2022-10-10T02:32:31.740Z,9.66
2022-10-10T02:35:05.572Z,10.88
2022-10-10T02:37:32.487Z,11.63
2022-10-10T02:40:02.006Z,11.64
2022-10-10T02:42:29.179Z,9.96
2022-10-10T02:44:56.595Z,8.40
2022-10-10T02:47:23.135Z,7.26
2022-10-10T02:49:51.301Z,6.42
2022-10-10T02:52:17.639Z,5.75
2022-10-10T02:54:44.102Z,5.22
2022-10-10T02:57:11.022Z,4.80
2022-10-10T02:59:37.299Z,4.44
2022-10-10T03:02:04.138Z,4.11
2022-10-10T03:04:30.243Z,5.03
2022-10-10T03:06:56.370Z,8.45
2022-10-10T03:09:22.629Z,10.42
2022-10-10T03:11:48.794Z,11.47
2022-10-10T03:14:14.931Z,12.18
2022-10-10T03:16:41.139Z,12.12
2022-10-10T03:19:08.268Z,10.48
2022-10-10T03:21:35.476Z,8.93
2022-10-10T03:24:01.738Z,7.78
2022-10-10T03:26:27.953Z,6.92
2022-10-10T03:28:54.130Z,6.25
2022-10-10T03:31:20.360Z,5.67
2022-10-10T03:33:46.619Z,5.18
2022-10-10T03:36:12.793Z,4.77
2022-10-10T03:38:39.638Z,4.41
2022-10-10T03:41:05.841Z,4.07
2022-10-10T03:43:32.041Z,5.22
2022-10-10T03:45:58.169Z,8.42
2022-10-10T03:48:24.306Z,10.16
2022-10-10T03:50:50.523Z,11.11
2022-10-10T03:53:16.685Z,11.84
2022-10-10T03:55:43.258Z,11.59
2022-10-10T03:58:10.670Z,9.93
2022-10-10T04:00:37.371Z,8.42
2022-10-10T04:03:05.847Z,7.31
2022-10-10T04:05:34.409Z,6.50
2022-10-10T04:08:00.590Z,5.87
2022-10-10T04:10:26.793Z,5.36
2022-10-10T04:12:53.406Z,4.90
2022-10-10T04:15:19.798Z,5.95
2022-10-10T04:17:46.065Z,8.93
2022-10-10T04:20:12.299Z,10.54
2022-10-10T04:22:39.224Z,11.46
2022-10-10T04:25:05.596Z,11.31
2022-10-10T04:27:31.785Z,9.61
2022-10-10T04:29:58.035Z,8.05
2022-10-10T04:32:24.196Z,6.90
2022-10-10T04:34:50.389Z,6.09
2022-10-10T04:37:16.536Z,5.45
2022-10-10T04:39:42.714Z,4.93
2022-10-10T04:42:08.853Z,4.49
2022-10-10T04:44:35.117Z,4.13
2022-10-10T04:47:01.332Z,5.23
2022-10-10T04:49:27.951Z,8.35
2022-10-10T04:51:54.079Z,9.94
2022-10-10T04:54:20.372Z,10.10
2022-10-10T04:56:46.758Z,8.58
2022-10-10T04:59:12.929Z,7.23
2022-10-10T05:01:39.120Z,6.28
2022-10-10T05:04:05.479Z,5.59
2022-10-10T05:06:31.948Z,5.06
2022-10-10T05:08:58.330Z,4.63
2022-10-10T05:11:24.734Z,5.14
2022-10-10T05:13:51.329Z,8.20
2022-10-10T05:16:17.772Z,10.01
2022-10-10T05:18:43.941Z,10.69
2022-10-10T05:21:11.278Z,9.39
2022-10-10T05:23:38.294Z,7.93
2022-10-10T05:26:04.608Z,6.90
2022-10-10T05:28:31.176Z,6.18
2022-10-10T05:30:57.403Z,6.30
2022-10-10T05:33:23.582Z,8.99
2022-10-10T05:35:49.714Z,10.90
2022-10-10T05:38:15.977Z,10.33
2022-10-10T05:40:42.157Z,8.85
2022-10-10T05:43:08.430Z,7.68
2022-10-10T05:45:34.629Z,8.25
2022-10-10T05:48:00.778Z,10.61
2022-10-10T05:50:33.336Z,10.49
2022-10-10T05:52:59.709Z,8.94
2022-10-10T05:55:26.005Z,7.96
2022-10-10T05:57:52.610Z,8.77
2022-10-10T06:00:18.920Z,11.24
2022-10-10T06:02:45.162Z,12.38
2022-10-10T06:05:11.407Z,11.09
2022-10-10T06:08:02.470Z,9.68
2022-10-10T06:10:23.791Z,8.60
2022-10-10T06:12:50.328Z,7.96
2022-10-10T06:15:17.143Z,9.25
2022-10-10T06:17:43.310Z,11.78
2022-10-10T06:20:09.484Z,12.51
2022-10-10T06:22:35.652Z,11.21
2022-10-10T06:25:01.876Z,9.81
2022-10-10T06:27:28.256Z,9.61
2022-10-10T06:29:54.405Z,11.70
2022-10-10T06:32:20.566Z,12.67
2022-10-10T06:34:46.680Z,11.32
2022-10-10T06:37:12.941Z,9.97
2022-10-10T06:39:39.097Z,10.42
2022-10-10T06:42:05.631Z,12.47
2022-10-10T06:44:31.802Z,12.14
2022-10-10T06:46:57.920Z,10.61
2022-10-10T06:49:25.152Z,10.29
2022-10-10T06:51:51.433Z,11.99
2022-10-10T06:54:17.623Z,12.01
2022-10-10T06:56:43.787Z,10.93
2022-10-10T06:59:09.928Z,10.67
2022-10-10T07:01:36.573Z,12.75
2022-10-10T07:04:03.165Z,13.20
2022-10-10T07:06:34.539Z,12.09
2022-10-10T07:09:01.303Z,11.77
2022-10-10T07:11:27.897Z,11.77
2022-10-10T07:13:54.076Z,12.07
2022-10-10T07:16:20.286Z,12.44
2022-10-10T07:18:46.443Z,12.87
2022-10-10T07:21:12.683Z,13.33
2022-10-10T07:23:38.911Z,13.78
2022-10-10T07:26:10.227Z,14.15
2022-10-10T07:28:36.889Z,14.40
2022-10-10T07:31:05.819Z,14.68
2022-10-10T07:33:39.970Z,14.96
2022-10-10T07:36:06.909Z,15.29
2022-10-10T07:38:34.135Z,15.66
2022-10-10T07:41:03.701Z,16.06
2022-10-10T07:43:29.917Z,16.52
2022-10-10T07:45:56.218Z,16.89
2022-10-10T07:48:22.488Z,17.33
2022-10-10T07:50:48.633Z,17.86
2022-10-10T07:53:14.856Z,18.52
2022-10-10T07:55:42.414Z,19.26
2022-10-10T07:58:10.367Z,19.89
2022-10-10T08:00:40.106Z,20.47
2022-10-10T08:03:12.109Z,20.91
2022-10-10T08:05:40.931Z,21.40
2022-10-10T08:08:07.931Z,21.79
2022-10-10T08:10:34.492Z,22.08
2022-10-10T08:13:00.769Z,22.38
2022-10-10T08:15:29.055Z,23.05
2022-10-10T08:17:57.944Z,23.47
2022-10-10T08:20:24.156Z,24.05
2022-10-10T08:22:50.732Z,24.68
2022-10-10T08:25:17.309Z,25.21
2022-10-10T08:27:43.519Z,25.71
2022-10-10T08:30:10.280Z,25.90
2022-10-10T08:32:36.557Z,26.36
2022-10-10T08:35:02.907Z,26.82
2022-10-10T08:37:32.742Z,27.02
2022-10-10T08:40:03.170Z,27.14
2022-10-10T08:42:40.666Z,27.19
2022-10-10T08:45:15.090Z,27.12
2022-10-10T08:47:57.057Z,27.26
2022-10-10T08:50:28.856Z,27.82
2022-10-10T08:53:10.138Z,28.00
2022-10-10T08:55:39.624Z,28.01
2022-10-10T08:58:18.024Z,27.90
2022-10-10T09:00:49.717Z,27.76
2022-10-10T09:03:33.276Z,27.52
2022-10-10T09:06:37.580Z,27.43
2022-10-10T09:09:12.828Z,27.86
2022-10-10T09:12:01.030Z,28.01
2022-10-10T09:14:46.112Z,28.36
2022-10-10T09:17:40.238Z,28.31
2022-10-10T09:20:26.558Z,28.79
2022-10-10T09:23:18.726Z,29.12
2022-10-10T09:25:55.324Z,29.21
2022-10-10T09:28:35.058Z,29.15
2022-10-10T09:31:04.023Z,29.33
2022-10-10T09:33:59.357Z,29.36
2022-10-10T09:36:32.107Z,28.97
2022-10-10T09:39:02.160Z,28.81
2022-10-10T09:41:51.289Z,29.03
2022-10-10T09:44:20.205Z,29.55
2022-10-10T09:46:46.498Z,29.60
2022-10-10T09:49:15.105Z,29.50
2022-10-10T09:51:41.854Z,29.43
2022-10-10T09:54:08.511Z,29.56
2022-10-10T09:56:43.573Z,29.56
2022-10-10T09:59:45.340Z,29.41
2022-10-10T10:02:18.901Z,29.64
2022-10-10T10:04:46.806Z,29.61
2022-10-10T10:07:29.374Z,29.90
2022-10-10T10:09:58.891Z,30.29
2022-10-10T10:12:29.494Z,30.48
2022-10-10T10:15:04.466Z,30.61
2022-10-10T10:17:31.126Z,30.70
2022-10-10T10:19:57.427Z,30.81
2022-10-10T10:22:34.241Z,30.89
2022-10-10T10:25:32.224Z,30.94
2022-10-10T10:28:10.431Z,30.91
2022-10-10T10:30:41.015Z,30.96
2022-10-10T10:33:07.103Z,30.68
2022-10-10T10:36:20.107Z,30.00
2022-10-10T10:38:55.335Z,29.12
2022-10-10T10:41:43.434Z,28.33
2022-10-10T10:44:39.719Z,27.33
2022-10-10T10:47:11.213Z,26.85
2022-10-10T10:50:03.078Z,26.89
2022-10-10T10:52:56.772Z,26.41
2022-10-10T10:55:26.603Z,25.99
2022-10-10T11:01:28.550Z,25.92
2022-10-10T11:05:20.845Z,25.69
2022-10-10T11:07:20.343Z,25.68
2022-10-10T11:09:54.917Z,25.86
2022-10-10T11:12:40.567Z,25.93
2022-10-10T11:15:37.607Z,26.17
2022-10-10T11:18:30.905Z,26.36
2022-10-10T11:21:18.543Z,26.26
2022-10-10T11:23:56.033Z,25.99
2022-10-10T11:26:31.302Z,25.52
2022-10-10T11:29:05.055Z,25.13
2022-10-10T11:31:39.219Z,24.65
2022-10-10T11:34:17.382Z,24.46
2022-10-10T11:36:45.068Z,24.14
2022-10-10T11:39:23.371Z,23.81
2022-10-10T11:42:02.775Z,23.75
2022-10-10T11:44:50.727Z,23.46
2022-10-10T11:47:26.075Z,23.45
2022-10-10T11:50:00.199Z,23.46
2022-10-10T11:52:56.446Z,23.58
2022-10-10T11:55:35.824Z,23.55
2022-10-10T11:58:05.083Z,23.37
2022-10-10T12:00:45.430Z,23.24
2022-10-10T12:03:12.979Z,22.72
2022-10-10T12:05:47.946Z,22.15
2022-10-10T12:08:25.285Z,21.63
2022-10-10T12:10:58.039Z,20.99
2022-10-10T12:13:31.430Z,20.61
2022-10-10T12:16:04.928Z,19.98
2022-10-10T12:18:50.424Z,19.55
2022-10-10T12:21:25.752Z,19.10
2022-10-10T12:24:12.184Z,18.72
2022-10-10T12:26:53.922Z,18.50
2022-10-10T12:29:51.098Z,18.26
2022-10-10T12:32:17.517Z,18.07
2022-10-10T12:34:47.077Z,18.07
2022-10-10T12:37:25.281Z,18.22
2022-10-10T12:40:06.705Z,18.09
2022-10-10T12:42:32.832Z,17.91
2022-10-10T12:44:59.918Z,17.89
2022-10-10T12:47:52.793Z,17.60
2022-10-10T12:50:23.644Z,17.40
2022-10-10T12:53:13.319Z,17.24
2022-10-10T12:55:42.852Z,17.14
2022-10-10T12:58:26.625Z,17.01
2022-10-10T13:01:00.116Z,16.98
2022-10-10T13:03:39.544Z,17.02
2022-10-10T13:06:25.076Z,16.97
2022-10-10T13:08:54.472Z,16.94
2022-10-10T13:11:20.822Z,16.91
2022-10-10T13:13:52.696Z,16.83
2022-10-10T13:16:22.266Z,16.74
2022-10-10T13:18:51.591Z,16.55
2022-10-10T13:21:21.977Z,16.54
2022-10-10T13:26:42.728Z,16.28
2022-10-10T13:29:21.759Z,16.16
2022-10-10T13:31:49.348Z,16.06
2022-10-10T13:34:24.770Z,16.01
2022-10-10T13:36:58.639Z,15.95
2022-10-10T13:39:26.660Z,15.87
2022-10-10T13:41:54.531Z,15.80
2022-10-10T13:44:24.425Z,15.75
2022-10-10T13:46:50.818Z,15.71
2022-10-10T13:49:27.041Z,15.70
2022-10-10T13:52:10.975Z,15.68
2022-10-10T13:54:48.582Z,15.64
2022-10-10T13:57:25.315Z,15.60
2022-10-10T14:00:14.585Z,15.56
2022-10-10T14:02:42.800Z,15.50
2022-10-10T14:05:18.795Z,15.48
2022-10-10T14:07:49.063Z,15.48
2022-10-10T14:10:22.825Z,15.48
2022-10-10T14:12:56.696Z,15.51
2022-10-10T14:15:29.148Z,15.48
2022-10-10T14:17:55.441Z,15.42
2022-10-10T14:20:22.168Z,15.38
2022-10-10T14:22:50.537Z,15.36
2022-10-10T14:25:16.713Z,15.36
2022-10-10T14:27:43.018Z,15.33
2022-10-10T14:30:13.432Z,15.34
2022-10-10T14:32:40.104Z,15.33
2022-10-10T14:35:09.087Z,15.32
2022-10-10T14:37:37.896Z,15.29
2022-10-10T14:40:26.491Z,15.24
2022-10-10T14:42:53.508Z,15.20
2022-10-10T14:45:20.331Z,15.12
2022-10-10T14:47:46.554Z,15.05
2022-10-10T14:50:15.798Z,14.98
2022-10-10T14:52:42.101Z,14.90
2022-10-10T14:55:09.661Z,14.84
2022-10-10T14:57:36.506Z,14.74
2022-10-10T15:00:06.942Z,14.64
2022-10-10T15:02:34.220Z,14.54
2022-10-10T15:05:00.601Z,14.47
2022-10-10T15:07:26.906Z,14.38
2022-10-10T15:10:31.561Z,14.31
2022-10-10T15:12:44.093Z,14.23
2022-10-10T15:15:14.124Z,14.13
2022-10-10T15:17:43.874Z,14.04
2022-10-10T15:20:11.948Z,13.94
2022-10-10T15:22:38.992Z,13.85
2022-10-10T15:25:07.894Z,13.75
2022-10-10T15:27:36.894Z,13.66
2022-10-10T15:30:06.151Z,13.54
2022-10-10T15:32:32.393Z,13.43
2022-10-10T15:34:58.623Z,13.33
2022-10-10T15:37:26.164Z,13.25
2022-10-10T15:39:52.608Z,13.15
2022-10-10T15:42:22.984Z,13.06
2022-10-10T15:44:50.545Z,12.96
2022-10-10T15:47:17.838Z,12.86
2022-10-10T15:49:44.302Z,12.74
2022-10-10T15:52:10.599Z,12.63
2022-10-10T15:54:36.804Z,12.53
2022-10-10T15:57:03.232Z,12.42
2022-10-10T15:59:30.872Z,12.31
2022-10-10T16:01:57.257Z,12.20
2022-10-10T16:04:24.644Z,12.08
2022-10-10T16:06:54.578Z,11.97
2022-10-10T16:09:37.303Z,11.85
2022-10-10T16:12:03.822Z,11.74
2022-10-10T16:14:30.359Z,11.65
2022-10-10T16:16:59.540Z,11.56
2022-10-10T16:19:26.341Z,11.47
2022-10-10T16:21:53.252Z,11.38
2022-10-10T16:24:19.494Z,11.30
2022-10-10T16:26:45.940Z,11.23
2022-10-10T16:29:13.446Z,11.14
2022-10-10T16:31:40.490Z,11.06
2022-10-10T16:34:07.919Z,10.98
2022-10-10T16:36:36.303Z,10.89
2022-10-10T16:39:04.105Z,10.81
2022-10-10T16:41:47.648Z,10.73
2022-10-10T16:44:15.839Z,10.65
2022-10-10T16:46:43.485Z,10.58
2022-10-10T16:49:12.032Z,10.52
2022-10-10T16:51:38.406Z,10.47
2022-10-10T16:54:06.665Z,10.42
2022-10-10T16:56:34.247Z,10.36
2022-10-10T16:59:03.280Z,10.31
2022-10-10T17:01:29.847Z,10.27
2022-10-10T17:03:58.360Z,10.23
2022-10-10T17:06:28.063Z,10.19
2022-10-10T17:08:57.520Z,10.16
2022-10-10T17:11:24.952Z,10.13
2022-10-10T17:13:51.787Z,10.11
2022-10-10T17:19:12.067Z,11.80
2022-10-10T17:21:39.703Z,14.22
2022-10-10T17:24:06.362Z,13.82
2022-10-10T17:26:33.618Z,12.86
2022-10-10T17:28:59.821Z,12.14
2022-10-10T17:31:27.339Z,11.64
2022-10-10T17:33:55.526Z,11.28
2022-10-10T17:36:24.183Z,10.98
2022-10-10T17:38:51.512Z,10.74
2022-10-10T17:41:19.460Z,10.53
2022-10-10T17:43:48.313Z,10.36
2022-10-10T17:46:34.401Z,10.24
2022-10-10T17:49:05.384Z,12.32
2022-10-10T17:51:33.249Z,14.21
2022-10-10T17:54:03.203Z,13.39
2022-10-10T17:56:29.867Z,12.40
2022-10-10T17:58:59.647Z,11.74
2022-10-10T18:01:29.795Z,11.23
2022-10-10T18:04:01.128Z,10.88
2022-10-10T18:06:30.751Z,10.60
2022-10-10T18:09:00.613Z,10.36
2022-10-10T18:11:32.385Z,11.41
2022-10-10T18:14:02.196Z,14.30
2022-10-10T18:19:17.733Z,13.24
2022-10-10T18:21:46.743Z,12.33
2022-10-10T18:24:14.785Z,11.67
2022-10-10T18:26:42.868Z,11.19
2022-10-10T18:29:10.577Z,10.82
2022-10-10T18:31:39.086Z,10.51
2022-10-10T18:34:07.683Z,10.25
2022-10-10T18:36:38.440Z,10.04
2022-10-10T18:39:10.780Z,11.02
2022-10-10T18:41:40.988Z,14.09
2022-10-10T18:44:12.483Z,14.76
2022-10-10T18:46:40.912Z,13.51
2022-10-10T18:49:09.199Z,12.40
2022-10-10T18:51:41.573Z,11.65
2022-10-10T18:54:14.288Z,11.09
2022-10-10T18:56:43.257Z,10.66
2022-10-10T18:59:14.813Z,10.33
2022-10-10T19:01:46.003Z,10.03
2022-10-10T19:04:17.532Z,9.77
2022-10-10T19:06:47.520Z,10.79
2022-10-10T19:09:17.629Z,13.78
2022-10-10T19:11:50.289Z,14.68
2022-10-10T19:14:18.447Z,13.39
2022-10-10T19:16:52.004Z,12.25
2022-10-10T19:19:21.283Z,11.41
2022-10-10T19:21:50.005Z,10.81
2022-10-10T19:24:21.253Z,10.34
2022-10-10T19:26:55.648Z,9.97
2022-10-10T19:29:26.228Z,10.95
2022-10-10T19:31:54.912Z,13.47
2022-10-10T19:34:23.923Z,13.19
2022-10-10T19:36:51.907Z,11.99
2022-10-10T19:39:19.945Z,11.11
2022-10-10T19:41:47.697Z,10.55
2022-10-10T19:44:16.575Z,11.70
2022-10-10T19:46:44.674Z,14.06
2022-10-10T19:49:12.596Z,13.79
2022-10-10T19:51:41.221Z,12.51
2022-10-10T19:54:09.372Z,11.48
2022-10-10T19:56:39.219Z,10.81
2022-10-10T19:59:16.973Z,10.81
2022-10-10T20:01:45.389Z,13.40
2022-10-10T20:04:17.640Z,14.14
2022-10-10T20:06:45.474Z,12.86
2022-10-10T20:09:14.101Z,11.76
2022-10-10T20:11:41.689Z,11.07
2022-10-10T20:14:10.493Z,12.66
2022-10-10T20:16:38.205Z,14.17
2022-10-10T20:19:05.777Z,13.23
2022-10-10T20:21:34.386Z,12.08
2022-10-10T20:24:06.912Z,11.22
2022-10-10T20:26:35.281Z,11.87
2022-10-10T20:29:03.814Z,13.67
2022-10-10T20:31:34.846Z,12.95
2022-10-10T20:34:03.368Z,11.87
2022-10-10T20:36:32.859Z,11.56
2022-10-10T20:39:01.968Z,13.62
2022-10-10T20:41:32.253Z,13.73
2022-10-10T20:44:03.222Z,12.34
2022-10-10T20:46:35.139Z,11.47
2022-10-10T20:49:05.189Z,13.02
2022-10-10T20:51:32.845Z,13.68
2022-10-10T20:54:02.699Z,12.38
2022-10-10T20:56:31.693Z,11.88
2022-10-10T20:59:00.137Z,13.54
2022-10-10T21:01:29.548Z,13.21
2022-10-10T21:03:57.335Z,11.99
2022-10-10T21:06:29.684Z,11.62
2022-10-10T21:09:00.130Z,13.79
2022-10-10T21:11:28.071Z,13.81
2022-10-10T21:13:58.569Z,12.48
2022-10-10T21:16:29.789Z,11.40
2022-10-10T21:18:58.606Z,12.03
2022-10-10T21:21:30.859Z,14.02
2022-10-10T21:23:58.871Z,13.35
2022-10-10T21:26:28.719Z,11.95
2022-10-10T21:28:57.727Z,11.07
2022-10-10T21:31:28.199Z,11.11
2022-10-10T21:33:56.275Z,13.13
2022-10-10T21:36:25.683Z,13.86
2022-10-10T21:38:56.975Z,12.56
2022-10-10T21:41:25.796Z,11.29
2022-10-10T21:43:55.605Z,11.52
2022-10-10T21:46:33.564Z,13.45
2022-10-10T21:49:06.797Z,12.69
2022-10-10T21:51:39.915Z,11.52
2022-10-10T21:54:08.538Z,11.81
2022-10-10T21:56:36.978Z,13.34
2022-10-10T21:59:05.135Z,12.66
2022-10-10T22:01:33.350Z,11.63
2022-10-10T22:04:02.797Z,10.89
2022-10-10T22:06:31.495Z,11.68
2022-10-10T22:09:00.689Z,13.63
2022-10-10T22:11:31.094Z,13.04
2022-10-10T22:13:58.789Z,11.74
2022-10-10T22:16:26.435Z,10.89
2022-10-10T22:18:55.517Z,11.47
2022-10-10T22:21:28.027Z,13.27
2022-10-10T22:24:01.952Z,12.59
2022-10-10T22:26:31.059Z,11.44
2022-10-10T22:28:58.998Z,10.69
2022-10-10T22:31:26.983Z,10.50
2022-10-10T22:33:54.574Z,12.58
2022-10-10T22:36:22.238Z,13.07
2022-10-10T22:38:49.824Z,11.88
2022-10-10T22:41:17.511Z,10.89
2022-10-10T22:43:45.033Z,11.06
2022-10-10T22:46:12.646Z,12.89
2022-10-10T22:48:40.329Z,12.35
2022-10-10T22:51:16.637Z,11.25
2022-10-10T22:53:45.780Z,10.41
2022-10-10T22:56:19.238Z,11.31
2022-10-10T22:58:49.011Z,13.15
2022-10-10T23:01:20.023Z,12.46
2022-10-10T23:03:48.016Z,11.24
2022-10-10T23:06:16.053Z,10.53
2022-10-10T23:08:43.775Z,12.20
2022-10-10T23:11:11.606Z,12.96
2022-10-10T23:13:39.181Z,11.95
2022-10-10T23:16:07.469Z,10.82
2022-10-10T23:18:35.517Z,11.20
2022-10-10T23:21:03.216Z,12.70
2022-10-10T23:23:30.862Z,11.83
2022-10-10T23:25:58.562Z,10.86
2022-10-10T23:28:26.256Z,10.28
2022-10-10T23:30:53.850Z,11.93
2022-10-10T23:33:21.450Z,13.10
2022-10-10T23:35:59.554Z,12.10
2022-10-10T23:38:28.376Z,10.95
2022-10-10T23:40:56.609Z,10.20
2022-10-10T23:43:24.306Z,11.37
2022-10-10T23:45:52.013Z,12.67
2022-10-10T23:48:20.407Z,11.78
2022-10-10T23:50:48.016Z,10.75
2022-10-10T23:53:15.680Z,10.28
2022-10-10T23:55:43.277Z,12.18
2022-10-10T23:58:10.842Z,12.35
